METAR Data
IDs: Format: Raw Decoded Include TAF

Data at: 0743 UTC 18 Sep 2021

LTAG 180720Z 01002KT CAVOK 30/10 Q1012 NOSIG RMK SKC